Terminal Aerodrome Forecast
Issued by NWS

Home | Current Version | Previous Version | Text Only | Print | Product List | Glossary On
Versions: 1 2 3 4 5 6 7 8 9 10 11 12 13 14 15 16
000
FTUS43 KDTX 281422 AAA
TAFDET
TAF AMD
KDET 281422Z 2814/2912 13007KT P6SM FEW040 SCT060 BKN250
     FM281900 16008KT P6SM BKN050
      TEMPO 2822/2902 3SM TSRA BKN028CB OVC050
     FM290200 26009KT 5SM BR BKN025
     FM290600 26006KT 6SM BR SCT018 BKN200=

USA.gov is the U.S. government's official web portal to all federal, state and local government web resources and services.